createdAt,value
2022-10-20T00:01:33.507Z,24.85
2022-10-20T00:03:25.101Z,20.67
2022-10-20T00:05:15.917Z,26.17
2022-10-20T00:07:07.945Z,21.20
2022-10-20T00:09:00.619Z,18.80
2022-10-20T00:10:54.087Z,18.92
2022-10-20T00:12:44.504Z,20.92
2022-10-20T00:14:35.116Z,19.75
2022-10-20T00:16:26.986Z,27.08
2022-10-20T00:18:17.823Z,25.02
2022-10-20T00:20:09.622Z,18.95
2022-10-20T00:21:59.867Z,23.20
2022-10-20T00:23:51.684Z,35.88
2022-10-20T00:25:42.161Z,24.23
2022-10-20T00:27:32.888Z,21.90
2022-10-20T00:29:23.758Z,19.83
2022-10-20T00:31:14.951Z,24.17
2022-10-20T00:33:05.441Z,19.33
2022-10-20T00:34:56.085Z,17.88
2022-10-20T00:36:50.361Z,24.45
2022-10-20T00:38:42.160Z,23.33
2022-10-20T00:40:34.042Z,29.60
2022-10-20T00:42:24.542Z,20.70
2022-10-20T00:44:53.260Z,22.15
2022-10-20T00:46:43.878Z,21.38
2022-10-20T00:48:35.140Z,24.10
2022-10-20T00:50:29.733Z,23.55
2022-10-20T00:52:22.506Z,23.25
2022-10-20T00:54:16.701Z,23.35
2022-10-20T00:56:08.513Z,20.85
2022-10-20T00:58:00.584Z,26.35
2022-10-20T00:59:51.034Z,20.70
2022-10-20T01:01:42.216Z,21.08
2022-10-20T01:03:40.033Z,18.88
2022-10-20T01:05:31.097Z,20.80
2022-10-20T01:07:21.687Z,23.48
2022-10-20T01:09:12.562Z,27.98
2022-10-20T01:11:12.702Z,24.30
2022-10-20T01:13:06.894Z,18.95
2022-10-20T01:15:01.912Z,28.30
2022-10-20T01:16:58.338Z,27.58
2022-10-20T01:18:54.524Z,23.27
2022-10-20T01:21:10.437Z,24.10
2022-10-20T01:23:25.218Z,26.00
2022-10-20T01:25:24.065Z,23.30
2022-10-20T01:27:29.316Z,21.90
2022-10-20T01:29:24.434Z,26.73
2022-10-20T01:31:20.777Z,28.48
2022-10-20T01:33:16.917Z,30.08
2022-10-20T01:35:11.832Z,32.70
2022-10-20T01:37:06.071Z,31.13
2022-10-20T01:39:02.107Z,26.30
2022-10-20T01:40:59.063Z,31.73
2022-10-20T01:42:52.445Z,20.63
2022-10-20T01:44:43.215Z,26.08
2022-10-20T01:46:34.899Z,24.92
2022-10-20T01:48:29.215Z,24.92
2022-10-20T01:50:20.283Z,20.48
2022-10-20T01:52:10.888Z,34.50
2022-10-20T01:54:01.385Z,26.40
2022-10-20T01:55:52.367Z,25.80
2022-10-20T01:57:57.277Z,27.42
2022-10-20T01:59:55.582Z,34.88
2022-10-20T02:02:05.660Z,34.10
2022-10-20T02:03:57.928Z,31.50
2022-10-20T02:06:01.408Z,29.50
2022-10-20T02:07:53.118Z,24.90
2022-10-20T02:09:46.353Z,24.55
2022-10-20T02:11:43.437Z,32.30
2022-10-20T02:13:37.528Z,30.33
2022-10-20T02:15:31.009Z,30.00
2022-10-20T02:17:21.757Z,29.85
2022-10-20T02:19:12.644Z,27.60
2022-10-20T02:21:04.544Z,28.92
2022-10-20T02:22:58.050Z,26.95
2022-10-20T02:24:50.161Z,34.85
2022-10-20T02:26:41.073Z,31.92
2022-10-20T02:28:33.222Z,29.67
2022-10-20T02:32:16.754Z,31.88
2022-10-20T02:34:07.965Z,34.40
2022-10-20T02:35:59.692Z,31.85
2022-10-20T02:37:50.169Z,32.20
2022-10-20T02:39:40.819Z,29.38
2022-10-20T02:41:31.118Z,37.30
2022-10-20T02:43:21.604Z,31.83
2022-10-20T02:45:11.957Z,33.75
2022-10-20T02:47:04.072Z,29.27
2022-10-20T02:48:54.646Z,36.00
2022-10-20T02:50:45.140Z,38.20
2022-10-20T02:52:35.789Z,36.28
2022-10-20T02:54:26.577Z,31.60
2022-10-20T02:56:17.182Z,35.75
2022-10-20T02:58:07.562Z,26.13
2022-10-20T02:59:58.137Z,34.60
2022-10-20T03:01:48.687Z,33.10
2022-10-20T03:03:40.440Z,41.35
2022-10-20T03:05:31.169Z,33.30
2022-10-20T03:07:21.456Z,42.22
2022-10-20T03:09:11.641Z,32.88
2022-10-20T03:11:02.472Z,34.92
2022-10-20T03:12:53.078Z,35.28
2022-10-20T03:14:43.864Z,34.90
2022-10-20T03:16:34.779Z,36.72
2022-10-20T03:18:25.117Z,40.67
2022-10-20T03:20:17.315Z,39.65
2022-10-20T03:22:07.934Z,40.33
2022-10-20T03:23:59.444Z,38.97
2022-10-20T03:25:50.028Z,36.13
2022-10-20T03:27:40.798Z,53.10
2022-10-20T03:29:31.331Z,46.53
2022-10-20T03:31:21.722Z,42.13
2022-10-20T03:33:12.565Z,38.10
2022-10-20T03:35:03.245Z,37.78
2022-10-20T03:36:55.491Z,37.38
2022-10-20T03:38:46.051Z,37.72
2022-10-20T03:40:36.750Z,40.42
2022-10-20T03:42:27.210Z,39.47
2022-10-20T03:44:17.669Z,41.35
2022-10-20T03:46:10.152Z,34.28
2022-10-20T03:48:00.700Z,40.88
2022-10-20T03:49:51.102Z,40.33
2022-10-20T03:51:41.633Z,44.70
2022-10-20T03:53:33.684Z,43.20
2022-10-20T03:55:24.416Z,39.08
2022-10-20T03:57:14.775Z,42.90
2022-10-20T03:59:05.560Z,45.03
2022-10-20T04:00:55.932Z,41.78
2022-10-20T04:02:46.999Z,40.22
2022-10-20T04:04:37.558Z,40.70
2022-10-20T04:06:28.439Z,42.63
2022-10-20T04:08:19.159Z,50.05
2022-10-20T04:10:11.701Z,39.58
2022-10-20T04:12:02.435Z,44.83
2022-10-20T04:13:53.038Z,44.38
2022-10-20T04:15:43.467Z,41.20
2022-10-20T04:17:34.179Z,45.72
2022-10-20T04:19:24.877Z,44.63
2022-10-20T04:21:15.215Z,55.38
2022-10-20T04:23:05.588Z,46.60
2022-10-20T04:24:56.394Z,52.17
2022-10-20T04:28:41.344Z,43.33
2022-10-20T04:30:32.069Z,49.70
2022-10-20T04:32:22.410Z,55.55
2022-10-20T04:34:12.986Z,44.35
2022-10-20T04:36:05.816Z,52.75
2022-10-20T04:37:56.127Z,48.88
2022-10-20T04:39:46.413Z,48.10
2022-10-20T04:41:37.153Z,49.67
2022-10-20T04:43:29.024Z,48.55
2022-10-20T04:45:19.519Z,50.00
2022-10-20T04:47:10.173Z,58.83
2022-10-20T04:49:00.488Z,50.83
2022-10-20T04:51:00.262Z,52.20
2022-10-20T04:52:50.704Z,54.40
2022-10-20T04:54:41.151Z,49.13
2022-10-20T04:56:32.831Z,61.67
2022-10-20T04:58:24.075Z,51.63
2022-10-20T05:00:16.707Z,48.40
2022-10-20T05:02:07.427Z,49.95
2022-10-20T05:03:58.245Z,55.50
2022-10-20T05:05:48.642Z,45.72
2022-10-20T05:07:39.565Z,56.13
2022-10-20T05:09:29.975Z,47.20
2022-10-20T05:11:21.849Z,58.78
2022-10-20T05:13:12.342Z,47.42
2022-10-20T05:15:02.872Z,52.78
2022-10-20T05:16:55.039Z,46.30
2022-10-20T05:18:46.251Z,58.80
2022-10-20T05:20:41.110Z,53.40
2022-10-20T05:22:36.983Z,47.88
2022-10-20T05:24:29.965Z,48.75
2022-10-20T05:26:20.519Z,43.25
2022-10-20T05:28:10.855Z,53.72
2022-10-20T05:30:01.089Z,50.83
2022-10-20T05:31:51.352Z,45.28
2022-10-20T05:33:46.456Z,50.03
2022-10-20T05:35:36.893Z,47.38
2022-10-20T05:37:27.532Z,56.08
2022-10-20T05:39:17.783Z,50.10
2022-10-20T05:41:09.913Z,47.33
2022-10-20T05:43:00.389Z,52.30
2022-10-20T05:44:50.677Z,48.83
2022-10-20T05:46:40.937Z,47.30
2022-10-20T05:48:31.297Z,49.28
2022-10-20T05:50:23.805Z,46.85
2022-10-20T05:52:14.112Z,52.60
2022-10-20T05:54:04.702Z,47.20
2022-10-20T05:55:55.252Z,48.85
2022-10-20T05:57:45.572Z,54.47
2022-10-20T05:59:36.398Z,51.75
2022-10-20T06:01:28.487Z,54.83
2022-10-20T06:03:20.718Z,47.20
2022-10-20T06:05:13.463Z,49.00
2022-10-20T06:07:05.428Z,48.28
2022-10-20T06:08:57.542Z,46.72
2022-10-20T06:10:47.940Z,51.92
2022-10-20T06:12:39.146Z,53.05
2022-10-20T06:14:29.680Z,49.75
2022-10-20T06:16:21.142Z,69.57
2022-10-20T06:18:11.597Z,64.60
2022-10-20T06:20:02.399Z,55.38
2022-10-20T06:21:52.975Z,53.60
2022-10-20T06:23:45.016Z,52.33
2022-10-20T06:25:35.691Z,52.83
2022-10-20T06:27:26.358Z,48.63
2022-10-20T06:29:18.473Z,44.63
2022-10-20T06:31:13.522Z,51.78
2022-10-20T06:33:03.873Z,48.40
2022-10-20T06:34:54.121Z,51.67
2022-10-20T06:36:45.351Z,43.13
2022-10-20T06:38:36.320Z,50.80
2022-10-20T06:40:28.511Z,50.28
2022-10-20T06:42:19.118Z,48.83
2022-10-20T06:44:09.618Z,52.92
2022-10-20T06:46:01.489Z,46.38
2022-10-20T06:47:51.793Z,48.30
2022-10-20T06:49:42.104Z,49.13
2022-10-20T06:51:33.049Z,47.35
2022-10-20T06:53:23.291Z,43.75
2022-10-20T06:55:13.801Z,38.45
2022-10-20T06:57:05.584Z,45.42
2022-10-20T06:58:57.572Z,49.28
2022-10-20T07:00:48.212Z,47.13
2022-10-20T07:02:38.925Z,50.47
2022-10-20T07:04:29.884Z,49.88
2022-10-20T07:06:22.228Z,49.80
2022-10-20T07:08:12.680Z,49.05
2022-10-20T07:10:03.028Z,54.75
2022-10-20T07:11:53.669Z,44.97
2022-10-20T07:13:45.902Z,41.88
2022-10-20T07:15:36.355Z,53.25
2022-10-20T07:17:26.656Z,47.83
2022-10-20T07:19:16.925Z,50.72
2022-10-20T07:21:09.377Z,48.67
2022-10-20T07:22:59.925Z,46.60
2022-10-20T07:24:50.164Z,52.47
2022-10-20T07:26:41.387Z,50.60
2022-10-20T07:28:32.653Z,46.75
2022-10-20T07:30:24.703Z,50.28
2022-10-20T07:32:15.346Z,53.63
2022-10-20T07:34:20.371Z,51.25
2022-10-20T07:36:16.863Z,48.28
2022-10-20T07:38:07.395Z,51.05
2022-10-20T07:39:58.194Z,46.85
2022-10-20T07:41:48.920Z,46.55
2022-10-20T07:43:39.570Z,49.10
2022-10-20T07:45:31.116Z,49.72
2022-10-20T07:47:21.821Z,49.85
2022-10-20T07:51:27.652Z,49.20
2022-10-20T07:53:18.181Z,49.40
2022-10-20T07:55:17.967Z,46.65
2022-10-20T07:57:19.764Z,49.08
2022-10-20T07:59:11.622Z,51.75
2022-10-20T08:01:03.664Z,53.78
2022-10-20T08:02:53.900Z,46.33
2022-10-20T08:04:44.289Z,47.47
2022-10-20T08:06:34.903Z,47.42
2022-10-20T08:08:25.598Z,48.10
2022-10-20T08:10:16.168Z,49.67
2022-10-20T08:12:06.662Z,48.63
2022-10-20T08:13:56.973Z,48.47
2022-10-20T08:15:51.755Z,58.05
2022-10-20T08:17:44.072Z,49.13
2022-10-20T08:19:36.060Z,41.42
2022-10-20T08:21:26.696Z,47.85
2022-10-20T08:23:17.092Z,47.90
2022-10-20T08:25:09.437Z,49.40
2022-10-20T08:27:01.005Z,46.80
2022-10-20T08:28:53.238Z,42.03
2022-10-20T08:30:43.453Z,54.00
2022-10-20T08:32:34.414Z,42.15
2022-10-20T08:34:26.368Z,54.10
2022-10-20T08:36:17.162Z,49.25
2022-10-20T08:38:07.550Z,42.72
2022-10-20T08:39:58.179Z,44.20
2022-10-20T08:44:02.697Z,41.95
2022-10-20T08:45:53.149Z,42.83
2022-10-20T08:47:44.203Z,44.40
2022-10-20T08:49:36.072Z,45.22
2022-10-20T08:51:31.785Z,44.20
2022-10-20T08:53:24.227Z,47.28
2022-10-20T08:59:02.181Z,48.72
2022-10-20T09:00:57.603Z,41.10
2022-10-20T09:02:49.420Z,45.38
2022-10-20T09:06:42.109Z,41.13
2022-10-20T09:08:34.724Z,46.05
2022-10-20T09:10:30.242Z,44.65
2022-10-20T09:12:21.720Z,39.25
2022-10-20T09:14:12.544Z,48.05
2022-10-20T09:16:05.996Z,43.80
2022-10-20T09:17:59.590Z,42.58
2022-10-20T09:19:55.887Z,53.30
2022-10-20T09:21:49.953Z,47.45
2022-10-20T09:23:43.014Z,39.75
2022-10-20T09:25:33.780Z,44.40
2022-10-20T09:27:29.872Z,46.42
2022-10-20T09:29:22.113Z,37.10
2022-10-20T09:31:21.876Z,38.80
2022-10-20T09:33:22.454Z,49.97
2022-10-20T09:35:26.446Z,42.42
2022-10-20T09:37:18.663Z,44.85
2022-10-20T09:39:19.021Z,41.70
2022-10-20T09:41:12.799Z,44.28
2022-10-20T09:43:09.723Z,45.47
2022-10-20T09:45:04.909Z,47.35
2022-10-20T09:46:55.610Z,40.72
2022-10-20T09:48:47.409Z,44.65
2022-10-20T09:50:40.509Z,46.17
2022-10-20T09:52:33.609Z,46.08
2022-10-20T09:54:25.344Z,46.40
2022-10-20T09:56:23.855Z,39.60
2022-10-20T09:58:19.121Z,43.22
2022-10-20T10:00:36.397Z,39.78
2022-10-20T10:02:30.872Z,40.38
2022-10-20T10:04:33.861Z,47.53
2022-10-20T10:06:31.857Z,39.53
2022-10-20T10:08:24.329Z,43.05
2022-10-20T10:12:17.790Z,38.67
2022-10-20T10:14:21.560Z,42.55
2022-10-20T10:16:13.577Z,48.72
2022-10-20T10:18:12.850Z,49.55
2022-10-20T10:20:10.808Z,45.42
2022-10-20T10:22:03.950Z,35.05
2022-10-20T10:23:55.950Z,39.40
2022-10-20T10:25:46.638Z,48.70
2022-10-20T10:27:37.328Z,44.85
2022-10-20T10:29:28.614Z,49.63
2022-10-20T10:31:22.361Z,45.55
2022-10-20T10:33:24.163Z,44.72
2022-10-20T10:35:22.675Z,43.90
2022-10-20T10:37:15.793Z,41.88
2022-10-20T10:39:10.787Z,42.00
2022-10-20T10:41:06.376Z,44.00
2022-10-20T10:43:27.580Z,47.53
2022-10-20T10:45:22.105Z,51.00
2022-10-20T10:47:24.037Z,42.20
2022-10-20T10:49:38.537Z,41.22
2022-10-20T10:51:38.164Z,39.97
2022-10-20T10:53:44.880Z,45.10
2022-10-20T10:55:49.741Z,41.65
2022-10-20T10:57:48.704Z,40.33
2022-10-20T10:59:43.514Z,41.03
2022-10-20T11:02:01.417Z,53.10
2022-10-20T11:04:09.685Z,47.38
2022-10-20T11:06:10.261Z,49.47
2022-10-20T11:08:11.520Z,45.05
2022-10-20T11:10:09.450Z,60.05
2022-10-20T11:12:37.803Z,48.17
2022-10-20T11:14:36.323Z,47.78
2022-10-20T11:16:33.541Z,46.30
2022-10-20T11:18:51.144Z,53.47
2022-10-20T11:20:49.899Z,42.60
2022-10-20T11:22:50.079Z,45.38
2022-10-20T11:24:47.124Z,42.22
2022-10-20T11:26:40.980Z,48.97
2022-10-20T11:28:35.562Z,40.30
2022-10-20T11:30:25.855Z,42.97
2022-10-20T11:32:25.617Z,44.30
2022-10-20T11:34:20.211Z,47.55
2022-10-20T11:36:15.316Z,43.60
2022-10-20T11:38:15.221Z,51.75
2022-10-20T11:40:15.227Z,59.65
2022-10-20T11:42:19.440Z,59.47
2022-10-20T11:44:14.695Z,73.72
2022-10-20T11:46:08.037Z,58.28
2022-10-20T11:48:04.584Z,80.75
2022-10-20T11:49:55.037Z,77.55
2022-10-20T11:52:30.891Z,74.00
2022-10-20T11:54:57.637Z,64.85
2022-10-20T11:56:56.474Z,76.60
2022-10-20T11:59:20.133Z,74.68
2022-10-20T12:01:28.476Z,82.43
2022-10-20T12:03:42.600Z,72.75
2022-10-20T12:05:51.174Z,65.15
2022-10-20T12:08:17.480Z,75.30
2022-10-20T12:10:33.583Z,63.83
2022-10-20T12:12:29.347Z,66.40
2022-10-20T12:14:25.943Z,83.40
2022-10-20T12:16:46.230Z,88.38
2022-10-20T12:18:37.248Z,66.88
2022-10-20T12:20:58.421Z,85.38
2022-10-20T12:22:50.041Z,84.90
2022-10-20T12:25:04.553Z,76.78
2022-10-20T12:27:17.047Z,71.95
2022-10-20T12:29:40.435Z,71.95
2022-10-20T12:32:15.792Z,77.30
2022-10-20T12:34:22.609Z,76.40
2022-10-20T12:36:34.040Z,86.85
2022-10-20T12:38:25.114Z,71.25
2022-10-20T12:40:25.146Z,91.88
2022-10-20T12:42:21.001Z,75.47
2022-10-20T12:44:16.149Z,74.20
2022-10-20T12:46:09.871Z,88.25
2022-10-20T12:48:02.012Z,81.28
2022-10-20T12:49:56.637Z,90.25
2022-10-20T12:51:49.336Z,83.00
2022-10-20T12:53:40.597Z,87.72
2022-10-20T12:55:39.541Z,79.38
2022-10-20T12:57:34.547Z,78.38
2022-10-20T12:59:46.303Z,71.28
2022-10-20T13:02:09.721Z,76.80
2022-10-20T13:04:00.009Z,81.63
2022-10-20T13:05:51.970Z,81.93
2022-10-20T13:08:02.217Z,69.82
2022-10-20T13:09:59.042Z,87.00
2022-10-20T13:12:00.801Z,73.80
2022-10-20T13:14:05.975Z,76.00
2022-10-20T13:15:56.900Z,71.03
2022-10-20T13:17:55.383Z,66.38
2022-10-20T13:19:49.084Z,59.60
2022-10-20T13:21:43.284Z,64.95
2022-10-20T13:23:38.833Z,52.88
2022-10-20T13:25:34.069Z,49.03
2022-10-20T13:27:24.889Z,59.67
2022-10-20T13:29:20.728Z,51.88
2022-10-20T13:31:16.920Z,45.53
2022-10-20T13:33:33.679Z,48.15
2022-10-20T13:35:30.412Z,46.30
2022-10-20T13:37:42.001Z,50.92
2022-10-20T13:39:38.525Z,44.03
2022-10-20T13:41:33.756Z,43.40
2022-10-20T13:43:29.667Z,42.58
2022-10-20T13:45:27.597Z,33.90
2022-10-20T13:47:43.885Z,41.08
2022-10-20T13:49:52.566Z,28.40
2022-10-20T13:51:45.194Z,32.38
2022-10-20T13:53:40.017Z,33.40
2022-10-20T13:55:31.750Z,30.98
2022-10-20T13:57:26.807Z,33.88
2022-10-20T13:59:20.950Z,35.50
2022-10-20T14:01:16.398Z,32.22
2022-10-20T14:03:16.772Z,29.98
2022-10-20T14:05:15.484Z,31.88
2022-10-20T14:07:07.524Z,30.23
2022-10-20T14:09:16.770Z,38.42
2022-10-20T14:11:07.320Z,34.00
2022-10-20T14:13:01.563Z,31.15
2022-10-20T14:14:52.760Z,31.40
2022-10-20T14:16:51.578Z,30.92
2022-10-20T14:18:41.895Z,32.53
2022-10-20T14:20:34.377Z,27.27
2022-10-20T14:22:32.598Z,39.90
2022-10-20T14:24:30.497Z,27.58
2022-10-20T14:26:22.054Z,32.75
2022-10-20T14:28:18.784Z,28.92
2022-10-20T14:30:14.866Z,37.30
2022-10-20T14:32:06.135Z,29.73
2022-10-20T14:33:56.860Z,29.20
2022-10-20T14:35:52.366Z,29.63
2022-10-20T14:37:47.127Z,25.33
2022-10-20T14:39:40.461Z,32.05
2022-10-20T14:41:32.667Z,23.00
2022-10-20T14:45:21.274Z,24.23
2022-10-20T14:47:19.868Z,21.10
2022-10-20T14:49:15.618Z,31.95
2022-10-20T14:51:30.227Z,29.17
2022-10-20T14:53:32.455Z,24.80
2022-10-20T14:55:31.987Z,28.05
2022-10-20T14:57:41.070Z,32.35
2022-10-20T14:59:32.781Z,27.17
2022-10-20T15:01:25.154Z,25.63
2022-10-20T15:03:15.841Z,25.60
2022-10-20T15:05:24.134Z,28.48
2022-10-20T15:07:17.194Z,22.98
2022-10-20T15:09:18.126Z,22.08
2022-10-20T15:11:22.468Z,28.27
2022-10-20T15:13:28.165Z,27.33
2022-10-20T15:15:22.579Z,24.23
2022-10-20T15:17:32.985Z,25.75
2022-10-20T15:19:33.379Z,26.63
2022-10-20T15:21:24.206Z,25.88
2022-10-20T15:23:17.139Z,23.80
2022-10-20T15:25:08.303Z,25.70
2022-10-20T15:27:00.783Z,24.77
2022-10-20T15:28:51.223Z,25.17
2022-10-20T15:30:42.050Z,27.92
2022-10-20T15:32:32.842Z,25.70
2022-10-20T15:34:23.538Z,22.00
2022-10-20T15:36:15.557Z,25.30
2022-10-20T15:38:05.894Z,20.92
2022-10-20T15:39:58.416Z,27.60
2022-10-20T15:41:51.624Z,22.83
2022-10-20T15:43:45.818Z,22.48
2022-10-20T15:45:39.057Z,24.88
2022-10-20T15:47:29.328Z,22.17
2022-10-20T15:49:20.557Z,22.50
2022-10-20T15:51:14.997Z,28.00
2022-10-20T15:53:07.047Z,25.27
2022-10-20T15:56:48.033Z,23.35
2022-10-20T15:58:39.820Z,25.88
2022-10-20T16:02:22.513Z,25.73
2022-10-20T16:04:17.322Z,23.60
2022-10-20T16:06:08.090Z,26.98
2022-10-20T16:07:58.982Z,26.63
2022-10-20T16:09:49.655Z,26.73
2022-10-20T16:11:40.038Z,27.55
2022-10-20T16:13:32.015Z,27.70
2022-10-20T16:15:23.084Z,24.90
2022-10-20T16:17:16.639Z,21.23
2022-10-20T16:19:08.189Z,27.73
2022-10-20T16:20:58.979Z,24.80
2022-10-20T16:22:49.285Z,25.52
2022-10-20T16:24:39.880Z,34.03
2022-10-20T16:26:30.374Z,22.58
2022-10-20T16:28:21.056Z,23.13
2022-10-20T16:30:13.028Z,25.85
2022-10-20T16:32:03.982Z,21.65
2022-10-20T16:33:58.616Z,23.23
2022-10-20T16:35:50.176Z,22.65
2022-10-20T16:37:42.555Z,22.60
2022-10-20T16:39:33.713Z,26.88
2022-10-20T16:41:24.698Z,31.15
2022-10-20T16:43:15.592Z,20.63
2022-10-20T16:45:07.569Z,23.50
2022-10-20T16:46:58.452Z,28.05
2022-10-20T16:48:48.735Z,25.02
2022-10-20T16:50:43.434Z,30.33
2022-10-20T16:52:34.279Z,29.55
2022-10-20T16:54:25.221Z,30.92
2022-10-20T16:56:19.842Z,31.73
2022-10-20T16:58:15.221Z,27.55
2022-10-20T17:00:07.812Z,29.45
2022-10-20T17:01:59.162Z,24.45
2022-10-20T17:03:51.451Z,29.15
2022-10-20T17:05:49.964Z,23.85
2022-10-20T17:07:40.800Z,34.33
2022-10-20T17:09:31.917Z,35.13
2022-10-20T17:11:24.985Z,30.58
2022-10-20T17:13:15.647Z,25.65
2022-10-20T17:15:08.254Z,32.55
2022-10-20T17:16:58.962Z,27.35
2022-10-20T17:18:49.518Z,31.05
2022-10-20T17:20:52.097Z,34.00
2022-10-20T17:23:04.095Z,31.10
2022-10-20T17:24:58.158Z,35.80
2022-10-20T17:26:48.967Z,35.45
2022-10-20T17:28:54.872Z,30.52
2022-10-20T17:30:51.792Z,28.45
2022-10-20T17:32:45.208Z,31.45
2022-10-20T17:34:35.669Z,29.55
2022-10-20T17:36:30.964Z,36.78
2022-10-20T17:38:24.963Z,27.50
2022-10-20T17:42:16.872Z,32.35
2022-10-20T17:44:17.345Z,35.63
2022-10-20T17:46:16.663Z,33.05
2022-10-20T17:48:08.552Z,36.47
2022-10-20T17:50:03.207Z,32.15
2022-10-20T17:51:56.403Z,31.33
2022-10-20T17:53:49.734Z,33.70
2022-10-20T17:55:45.995Z,30.88
2022-10-20T17:57:36.630Z,28.55
2022-10-20T17:59:34.808Z,34.13
2022-10-20T18:01:38.095Z,37.17
2022-10-20T18:03:34.531Z,36.97
2022-10-20T18:05:25.176Z,30.00
2022-10-20T18:07:17.723Z,32.50
2022-10-20T18:09:10.158Z,34.25
2022-10-20T18:12:58.964Z,30.95
2022-10-20T18:14:50.324Z,32.10
2022-10-20T18:16:44.726Z,39.07
2022-10-20T18:18:35.944Z,32.97
2022-10-20T18:20:28.729Z,37.13
2022-10-20T18:22:25.777Z,34.58
2022-10-20T18:24:18.201Z,31.83
2022-10-20T18:28:06.696Z,36.63
2022-10-20T18:30:00.538Z,37.55
2022-10-20T18:32:07.171Z,37.92
2022-10-20T18:34:05.783Z,37.95
2022-10-20T18:36:04.953Z,32.50
2022-10-20T18:38:06.768Z,45.92
2022-10-20T18:39:57.683Z,42.20
2022-10-20T18:41:50.583Z,36.65
2022-10-20T18:43:45.350Z,35.15
2022-10-20T18:45:51.620Z,39.78
2022-10-20T18:47:48.401Z,45.97
2022-10-20T18:49:42.017Z,37.92
2022-10-20T18:51:33.810Z,39.22
2022-10-20T18:53:34.574Z,37.80
2022-10-20T18:55:39.344Z,33.20
2022-10-20T18:57:36.622Z,47.45
2022-10-20T18:59:29.416Z,38.25
2022-10-20T19:01:24.979Z,44.72
2022-10-20T19:03:15.442Z,47.53
2022-10-20T19:05:09.668Z,51.95
2022-10-20T19:07:06.405Z,42.40
2022-10-20T19:09:06.062Z,38.78
2022-10-20T19:11:06.470Z,43.10
2022-10-20T19:13:11.258Z,45.53
2022-10-20T19:15:02.915Z,38.75
2022-10-20T19:17:03.396Z,40.63
2022-10-20T19:19:17.743Z,36.50
2022-10-20T19:24:07.284Z,48.08
2022-10-20T19:26:10.211Z,39.40
2022-10-20T19:28:06.146Z,45.72
2022-10-20T19:30:00.719Z,48.42
2022-10-20T19:31:53.540Z,46.15
2022-10-20T19:33:49.598Z,39.75
2022-10-20T19:35:39.864Z,37.65
2022-10-20T19:37:30.256Z,39.33
2022-10-20T19:41:14.818Z,38.38
2022-10-20T19:43:05.117Z,38.83
2022-10-20T19:44:55.434Z,52.10
2022-10-20T19:46:47.979Z,43.97
2022-10-20T19:48:39.463Z,48.63
2022-10-20T19:50:30.834Z,43.63
2022-10-20T19:52:21.353Z,44.10
2022-10-20T19:54:12.678Z,44.88
2022-10-20T19:56:06.964Z,53.45
2022-10-20T19:57:57.612Z,39.28
2022-10-20T19:59:48.243Z,38.50
2022-10-20T20:01:39.053Z,38.10
2022-10-20T20:03:30.011Z,45.88
2022-10-20T20:05:21.985Z,41.33
2022-10-20T20:07:12.701Z,44.63
2022-10-20T20:09:06.602Z,39.35
2022-10-20T20:10:57.890Z,40.58
2022-10-20T20:12:50.379Z,42.20
2022-10-20T20:18:24.575Z,42.20
2022-10-20T20:20:15.118Z,45.28
2022-10-20T20:22:09.462Z,36.22
2022-10-20T20:24:02.319Z,42.92
2022-10-20T20:25:53.143Z,39.25
2022-10-20T20:27:43.528Z,41.28
2022-10-20T20:29:35.674Z,37.92
2022-10-20T20:33:18.661Z,35.40
2022-10-20T20:35:09.664Z,38.53
2022-10-20T20:37:00.360Z,39.90
2022-10-20T20:38:53.695Z,35.50
2022-10-20T20:40:46.091Z,41.83
2022-10-20T20:42:36.872Z,39.53
2022-10-20T20:44:29.985Z,39.83
2022-10-20T20:46:25.699Z,44.63
2022-10-20T20:48:16.027Z,33.88
2022-10-20T20:50:07.489Z,39.17
2022-10-20T20:51:58.160Z,47.53
2022-10-20T20:53:48.754Z,37.42
2022-10-20T20:55:39.574Z,40.08
2022-10-20T20:57:30.185Z,47.47
2022-10-20T20:59:21.092Z,39.33
2022-10-20T21:01:14.104Z,42.63
2022-10-20T21:03:06.169Z,39.20
2022-10-20T21:04:59.560Z,38.80
2022-10-20T21:07:01.690Z,44.88
2022-10-20T21:08:52.776Z,35.30
2022-10-20T21:10:43.416Z,36.05
2022-10-20T21:12:35.393Z,32.40
2022-10-20T21:14:27.761Z,31.85
2022-10-20T21:16:19.602Z,35.97
2022-10-20T21:18:11.414Z,39.20
2022-10-20T21:20:01.778Z,33.05
2022-10-20T21:21:52.497Z,38.70
2022-10-20T21:23:43.064Z,35.63
2022-10-20T21:25:33.865Z,35.00
2022-10-20T21:27:24.565Z,32.97
2022-10-20T21:29:15.192Z,35.15
2022-10-20T21:31:06.926Z,33.70
2022-10-20T21:32:57.630Z,37.20
2022-10-20T21:34:49.424Z,30.70
2022-10-20T21:36:39.849Z,34.97
2022-10-20T21:38:30.677Z,30.92
2022-10-20T21:40:21.020Z,37.17
2022-10-20T21:42:11.565Z,30.35
2022-10-20T21:44:03.800Z,31.02
2022-10-20T21:45:54.472Z,37.72
2022-10-20T21:47:44.867Z,32.15
2022-10-20T21:49:35.651Z,32.05
2022-10-20T21:51:29.152Z,27.60
2022-10-20T21:53:19.423Z,35.65
2022-10-20T21:55:09.950Z,31.77
2022-10-20T21:57:00.493Z,39.72
2022-10-20T21:58:51.656Z,36.88
2022-10-20T22:00:42.164Z,30.58
2022-10-20T22:02:32.425Z,38.25
2022-10-20T22:04:25.505Z,34.20
2022-10-20T22:06:17.258Z,38.35
2022-10-20T22:08:09.126Z,39.03
2022-10-20T22:09:59.786Z,38.03
2022-10-20T22:11:52.041Z,43.33
2022-10-20T22:13:43.123Z,38.13
2022-10-20T22:15:37.068Z,32.67
2022-10-20T22:17:27.516Z,34.47
2022-10-20T22:19:20.019Z,35.05
2022-10-20T22:21:13.678Z,37.38
2022-10-20T22:23:05.102Z,32.22
2022-10-20T22:24:56.868Z,33.35
2022-10-20T22:26:48.091Z,29.83
2022-10-20T22:28:38.872Z,37.75
2022-10-20T22:30:29.416Z,31.83
2022-10-20T22:32:19.807Z,34.13
2022-10-20T22:34:10.590Z,27.00
2022-10-20T22:36:01.039Z,35.85
2022-10-20T22:37:51.389Z,33.28
2022-10-20T22:39:41.757Z,35.10
2022-10-20T22:41:33.418Z,36.03
2022-10-20T22:43:24.252Z,31.38
2022-10-20T22:45:15.252Z,41.33
2022-10-20T22:47:05.716Z,37.75
2022-10-20T22:48:56.103Z,29.65
2022-10-20T22:50:46.962Z,40.97
2022-10-20T22:52:37.960Z,34.78
2022-10-20T22:54:28.489Z,30.73
2022-10-20T22:56:21.357Z,32.13
2022-10-20T22:58:13.297Z,32.58
2022-10-20T23:00:05.741Z,31.52
2022-10-20T23:01:56.404Z,37.00
2022-10-20T23:03:47.413Z,35.75
2022-10-20T23:05:38.271Z,27.52
2022-10-20T23:07:28.741Z,34.75
2022-10-20T23:09:19.172Z,35.05
2022-10-20T23:11:10.221Z,34.03
2022-10-20T23:13:00.467Z,30.50
2022-10-20T23:14:52.390Z,37.47
2022-10-20T23:16:42.876Z,34.15
2022-10-20T23:18:33.842Z,30.88
2022-10-20T23:20:24.520Z,38.38
2022-10-20T23:22:15.150Z,25.35
2022-10-20T23:24:06.179Z,26.98
2022-10-20T23:25:58.468Z,34.30
2022-10-20T23:27:51.238Z,27.45
2022-10-20T23:29:41.381Z,31.35
2022-10-20T23:31:33.053Z,37.70
2022-10-20T23:33:23.797Z,35.22
2022-10-20T23:35:15.773Z,34.55
2022-10-20T23:37:06.360Z,36.75
2022-10-20T23:38:57.012Z,31.67
2022-10-20T23:40:47.775Z,34.03
2022-10-20T23:42:38.045Z,28.73
2022-10-20T23:44:28.448Z,40.42
2022-10-20T23:46:19.114Z,35.60
2022-10-20T23:48:10.841Z,33.63
2022-10-20T23:50:01.497Z,28.48
2022-10-20T23:51:51.806Z,30.25
2022-10-20T23:53:42.189Z,32.08
2022-10-20T23:55:32.957Z,26.58
2022-10-20T23:57:23.577Z,31.58
2022-10-20T23:59:14.472Z,28.30
